createdAt,value
2019-05-17T00:00:04.148Z,100177.08
2019-05-17T00:02:57.163Z,100180.30
2019-05-17T00:05:48.356Z,100174.62
2019-05-17T00:08:38.523Z,100185.11
2019-05-17T00:11:29.829Z,100184.83
2019-05-17T00:14:19.548Z,100177.45
2019-05-17T00:17:09.552Z,100183.16
2019-05-17T00:19:59.583Z,100179.42
2019-05-17T00:22:49.948Z,100175.38
2019-05-17T00:25:40.022Z,100175.14
2019-05-17T00:28:30.226Z,100166.52
2019-05-17T00:31:20.005Z,100163.27
2019-05-17T00:34:10.044Z,100156.59
2019-05-17T00:36:59.838Z,100160.13
2019-05-17T00:39:49.915Z,100153.13
2019-05-17T00:42:39.947Z,100153.96
2019-05-17T00:45:30.005Z,100149.09
2019-05-17T00:48:20.106Z,100144.45
2019-05-17T00:51:10.959Z,100141.75
2019-05-17T00:54:00.964Z,100137.11
2019-05-17T00:56:50.900Z,100144.69
2019-05-17T00:59:40.805Z,100137.34
2019-05-17T01:02:31.157Z,100134.89
2019-05-17T01:05:21.320Z,100134.89
2019-05-17T01:08:12.159Z,100131.87
2019-05-17T01:11:02.405Z,100128.87
2019-05-17T01:13:52.398Z,100126.48
2019-05-17T01:16:42.674Z,100127.31
2019-05-17T01:19:32.425Z,100121.08
2019-05-17T01:22:22.630Z,100122.44
2019-05-17T01:25:12.858Z,100117.86
2019-05-17T01:28:03.023Z,100122.36
2019-05-17T01:30:53.896Z,100121.84
2019-05-17T01:33:44.035Z,100117.55
2019-05-17T01:36:34.030Z,100114.65
2019-05-17T01:39:24.015Z,100115.23
2019-05-17T01:42:17.022Z,100119.63
2019-05-17T01:45:07.379Z,100114.55
2019-05-17T01:47:57.750Z,100108.91
2019-05-17T01:50:47.433Z,100109.49
2019-05-17T01:53:37.300Z,100099.77
2019-05-17T01:56:28.708Z,100092.77
2019-05-17T01:59:19.317Z,100090.59
2019-05-17T02:02:12.336Z,100095.81
2019-05-17T02:05:02.179Z,100086.09
2019-05-17T02:07:52.666Z,100083.73
2019-05-17T02:10:42.681Z,100085.39
2019-05-17T02:13:32.758Z,100086.50
2019-05-17T02:16:22.622Z,100079.75
2019-05-17T02:19:12.659Z,100071.66
2019-05-17T02:22:02.700Z,100069.53
2019-05-17T02:24:52.517Z,100073.59
2019-05-17T02:27:44.751Z,100067.14
2019-05-17T02:30:35.102Z,100067.42
2019-05-17T02:33:25.897Z,100067.27
2019-05-17T02:36:15.861Z,100071.61
2019-05-17T02:39:07.660Z,100067.34
2019-05-17T02:41:57.950Z,100063.05
2019-05-17T02:44:48.181Z,100059.52
2019-05-17T02:47:38.307Z,100060.66
2019-05-17T02:50:28.179Z,100063.63
2019-05-17T02:53:18.488Z,100057.25
2019-05-17T02:56:08.460Z,100053.47
2019-05-17T02:58:58.604Z,100058.63
2019-05-17T03:01:48.974Z,100051.42
2019-05-17T03:04:38.992Z,100046.60
2019-05-17T03:07:32.451Z,100048.53
2019-05-17T03:10:25.225Z,100055.34
2019-05-17T03:13:17.157Z,100049.18
2019-05-17T03:16:04.922Z,100052.19
2019-05-17T03:18:54.975Z,100053.02
2019-05-17T03:21:45.546Z,100053.30
2019-05-17T03:24:35.843Z,100055.14
2019-05-17T03:27:25.669Z,100055.72
2019-05-17T03:30:18.170Z,100055.14
2019-05-17T03:33:08.313Z,100051.94
2019-05-17T03:35:59.187Z,100059.25
2019-05-17T03:38:49.089Z,100060.63
2019-05-17T03:41:42.632Z,100058.55
2019-05-17T03:44:33.217Z,100055.34
2019-05-17T03:47:22.834Z,100056.52
2019-05-17T03:50:14.251Z,100055.47
2019-05-17T03:53:05.073Z,100061.21
2019-05-17T03:55:55.336Z,100052.37
2019-05-17T03:58:45.307Z,100050.77
2019-05-17T04:01:35.375Z,100055.41
2019-05-17T04:04:25.219Z,100058.10
2019-05-17T04:07:15.630Z,100057.06
2019-05-17T04:10:06.351Z,100056.32
2019-05-17T04:12:56.215Z,100049.07
2019-05-17T04:15:46.448Z,100056.19
2019-05-17T04:18:36.550Z,100052.97
2019-05-17T04:21:27.673Z,100055.17
2019-05-17T04:24:17.431Z,100053.36
2019-05-17T04:27:07.635Z,100056.64
2019-05-17T04:29:57.939Z,100054.30
2019-05-17T04:32:48.063Z,100053.00
2019-05-17T04:35:38.164Z,100053.91
2019-05-17T04:38:27.755Z,100060.27
2019-05-17T04:41:36.192Z,100056.53
2019-05-17T04:44:12.664Z,100057.64
2019-05-17T04:47:03.176Z,100064.23
2019-05-17T04:49:53.863Z,100059.62
2019-05-17T04:52:44.235Z,100063.16
2019-05-17T04:55:34.570Z,100067.05
2019-05-17T04:58:24.757Z,100067.05
2019-05-17T05:01:14.881Z,100059.46
2019-05-17T05:04:05.214Z,100060.29
2019-05-17T05:06:56.033Z,100061.91
2019-05-17T05:09:46.205Z,100055.45
2019-05-17T05:12:36.108Z,100058.55
2019-05-17T05:15:44.597Z,100056.98
2019-05-17T05:18:34.927Z,100053.52
2019-05-17T05:21:24.577Z,100051.16
2019-05-17T05:24:15.016Z,100046.38
2019-05-17T05:27:04.938Z,100045.91
2019-05-17T05:29:54.598Z,100038.42
2019-05-17T05:32:44.861Z,100042.55
2019-05-17T05:35:35.148Z,100033.95
2019-05-17T05:38:25.103Z,100040.30
2019-05-17T05:41:15.167Z,100038.73
2019-05-17T05:44:05.107Z,100031.71
2019-05-17T05:46:55.206Z,100035.04
2019-05-17T05:49:45.020Z,100034.27
2019-05-17T05:52:34.944Z,100027.02
2019-05-17T05:55:24.689Z,100029.52
2019-05-17T05:58:15.161Z,100030.91
2019-05-17T06:01:04.765Z,100033.97
2019-05-17T06:03:54.831Z,100028.60
2019-05-17T06:06:44.440Z,100025.91
2019-05-17T06:09:34.409Z,100021.36
2019-05-17T06:12:28.023Z,100032.77
2019-05-17T06:15:16.475Z,100022.33
2019-05-17T06:18:06.569Z,100027.48
2019-05-17T06:20:56.534Z,100023.73
2019-05-17T06:23:46.833Z,100022.23
2019-05-17T06:26:36.808Z,100020.92
2019-05-17T06:29:26.914Z,100024.77
2019-05-17T06:32:17.360Z,100022.38
2019-05-17T06:35:08.022Z,100024.11
2019-05-17T06:37:57.857Z,100025.52
2019-05-17T06:40:47.678Z,100017.77
2019-05-17T06:43:38.575Z,100024.86
2019-05-17T06:46:28.703Z,100018.16
2019-05-17T06:49:18.980Z,100020.64
2019-05-17T06:52:11.577Z,100021.02
2019-05-17T06:55:05.816Z,100020.77
2019-05-17T06:57:54.860Z,100012.97
2019-05-17T07:00:49.790Z,100018.20
2019-05-17T07:03:42.492Z,100016.09
2019-05-17T07:06:37.014Z,100011.28
2019-05-17T07:09:30.202Z,100012.94
2019-05-17T07:12:20.348Z,100012.78
2019-05-17T07:15:10.996Z,100003.92
2019-05-17T07:18:00.715Z,100009.67
2019-05-17T07:20:50.382Z,100011.33
2019-05-17T07:23:40.583Z,100002.73
2019-05-17T07:26:30.493Z,100003.29
2019-05-17T07:29:20.556Z,100004.71
2019-05-17T07:32:10.691Z,100001.00
2019-05-17T07:35:00.657Z,100007.11
2019-05-17T07:37:51.206Z,100003.07
2019-05-17T07:40:41.427Z,99999.32
2019-05-17T07:43:31.817Z,99996.40
2019-05-17T07:46:22.005Z,100005.98
2019-05-17T07:49:12.614Z,100014.75
2019-05-17T07:52:02.873Z,100011.77
2019-05-17T07:54:52.584Z,99999.84
2019-05-17T07:57:44.046Z,99989.00
2019-05-17T08:00:33.600Z,99992.05
2019-05-17T08:03:25.022Z,100007.58
2019-05-17T08:06:15.180Z,100010.07
2019-05-17T08:09:13.888Z,99998.19
2019-05-17T08:12:00.190Z,99998.72
2019-05-17T08:14:51.611Z,100010.74
2019-05-17T08:17:42.014Z,100007.52
2019-05-17T08:20:31.603Z,99997.75
2019-05-17T08:23:21.754Z,99992.13
2019-05-17T08:26:11.625Z,99997.92
2019-05-17T08:29:01.711Z,99998.25
2019-05-17T08:31:51.897Z,99989.69
2019-05-17T08:34:41.561Z,99993.31
2019-05-17T08:37:31.973Z,99994.49
2019-05-17T08:40:21.983Z,99994.81
2019-05-17T08:43:11.809Z,99990.76
2019-05-17T08:46:02.492Z,99980.72
2019-05-17T08:48:52.828Z,99972.61
2019-05-17T08:51:43.567Z,99973.71
2019-05-17T08:54:33.717Z,99967.41
2019-05-17T08:57:23.592Z,99961.92
2019-05-17T09:00:14.276Z,99955.91
2019-05-17T09:03:04.271Z,99964.34
2019-05-17T09:05:54.334Z,99961.09
2019-05-17T09:08:44.745Z,99953.42
2019-05-17T09:11:34.767Z,99948.80
2019-05-17T09:14:24.685Z,99947.97
2019-05-17T09:17:14.741Z,99946.89
2019-05-17T09:20:05.155Z,99944.17
2019-05-17T09:22:54.670Z,99944.70
2019-05-17T09:25:44.914Z,99939.50
2019-05-17T09:28:34.747Z,99933.14
2019-05-17T09:31:23.909Z,99927.34
2019-05-17T09:34:14.655Z,99923.97
2019-05-17T09:37:04.961Z,99923.89
2019-05-17T09:39:56.345Z,99921.84
2019-05-17T09:42:46.242Z,99915.53
2019-05-17T09:45:36.500Z,99911.27
2019-05-17T09:48:26.798Z,99917.69
2019-05-17T09:51:16.864Z,99912.13
2019-05-17T09:54:10.100Z,99913.50
2019-05-17T09:57:00.469Z,99917.07
2019-05-17T09:59:50.661Z,99910.33
2019-05-17T10:02:40.571Z,99907.64
2019-05-17T10:05:31.297Z,99906.85
2019-05-17T10:08:21.055Z,99900.30
2019-05-17T10:11:12.187Z,99892.87
2019-05-17T10:14:02.302Z,99890.59
2019-05-17T10:16:52.462Z,99888.00
2019-05-17T10:19:42.915Z,99887.91
2019-05-17T10:22:33.093Z,99880.31
2019-05-17T10:25:23.477Z,99885.56
2019-05-17T10:28:13.616Z,99888.83
2019-05-17T10:31:03.705Z,99885.26
2019-05-17T10:33:53.881Z,99882.02
2019-05-17T10:36:44.069Z,99881.60
2019-05-17T10:39:34.130Z,99875.94
2019-05-17T10:42:23.837Z,99869.17
2019-05-17T10:45:14.319Z,99875.16
2019-05-17T10:48:04.816Z,99860.83
2019-05-17T10:50:54.923Z,99864.07
2019-05-17T10:53:45.039Z,99869.11
2019-05-17T10:56:35.421Z,99861.52
2019-05-17T10:59:24.972Z,99865.23
2019-05-17T11:02:15.420Z,99865.48
2019-05-17T11:05:06.258Z,99858.06
2019-05-17T11:07:56.343Z,99854.83
2019-05-17T11:10:46.818Z,99851.11
2019-05-17T11:13:36.926Z,99848.69
2019-05-17T11:16:28.502Z,99839.70
2019-05-17T11:19:19.400Z,99836.30
2019-05-17T11:22:09.361Z,99834.75
2019-05-17T11:24:59.501Z,99830.98
2019-05-17T11:27:49.145Z,99840.24
2019-05-17T11:30:39.278Z,99841.44
2019-05-17T11:33:29.352Z,99847.59
2019-05-17T11:36:19.402Z,99843.58
2019-05-17T11:39:09.015Z,99843.64
2019-05-17T11:41:59.293Z,99843.80
2019-05-17T11:44:50.259Z,99837.16
2019-05-17T11:47:41.296Z,99832.59
2019-05-17T11:50:31.341Z,99833.92
2019-05-17T11:53:21.529Z,99831.38
2019-05-17T11:56:11.335Z,99827.31
2019-05-17T11:59:01.397Z,99822.41
2019-05-17T12:01:51.137Z,99825.85
2019-05-17T12:04:41.002Z,99814.41
2019-05-17T12:07:31.139Z,99817.14
2019-05-17T12:10:21.331Z,99812.45
2019-05-17T12:13:11.187Z,99816.48
2019-05-17T12:16:01.089Z,99807.67
2019-05-17T12:18:50.879Z,99808.66
2019-05-17T12:21:40.791Z,99808.78
2019-05-17T12:24:30.775Z,99803.05
2019-05-17T12:27:20.875Z,99812.91
2019-05-17T12:30:13.716Z,99807.02
2019-05-17T12:33:03.502Z,99800.03
2019-05-17T12:35:53.592Z,99796.91
2019-05-17T12:38:44.043Z,99799.72
2019-05-17T12:41:34.088Z,99798.11
2019-05-17T12:44:23.989Z,99797.47
2019-05-17T12:47:13.667Z,99790.00
2019-05-17T12:50:03.605Z,99798.84
2019-05-17T12:52:53.802Z,99793.64
2019-05-17T12:55:43.137Z,99794.30
2019-05-17T12:58:33.456Z,99789.58
2019-05-17T13:01:23.490Z,99795.14
2019-05-17T13:04:13.110Z,99802.51
2019-05-17T13:07:08.208Z,99788.99
2019-05-17T13:09:59.810Z,99794.22
2019-05-17T13:12:49.902Z,99790.58
2019-05-17T13:15:39.821Z,99783.92
2019-05-17T13:18:29.569Z,99776.14
2019-05-17T13:21:19.487Z,99779.86
2019-05-17T13:24:09.615Z,99778.50
2019-05-17T13:26:59.536Z,99768.64
2019-05-17T13:29:49.638Z,99760.44
2019-05-17T13:32:39.854Z,99761.78
2019-05-17T13:35:29.854Z,99761.84
2019-05-17T13:38:19.937Z,99763.08
2019-05-17T13:41:09.517Z,99759.53
2019-05-17T13:43:59.217Z,99753.09
2019-05-17T13:46:49.155Z,99756.53
2019-05-17T13:49:39.354Z,99751.12
2019-05-17T13:52:29.238Z,99747.87
2019-05-17T13:55:20.104Z,99741.52
2019-05-17T13:58:09.747Z,99745.80
2019-05-17T14:00:59.326Z,99741.87
2019-05-17T14:03:49.217Z,99741.18
2019-05-17T14:06:39.498Z,99743.98
2019-05-17T14:09:28.961Z,99749.03
2019-05-17T14:12:18.691Z,99738.66
2019-05-17T14:15:10.282Z,99748.67
2019-05-17T14:18:01.019Z,99741.37
2019-05-17T14:20:51.086Z,99741.44
2019-05-17T14:23:41.417Z,99740.68
2019-05-17T14:26:31.099Z,99741.17
2019-05-17T14:29:21.124Z,99740.35
2019-05-17T14:32:11.452Z,99740.19
2019-05-17T14:35:01.615Z,99732.72
2019-05-17T14:37:52.340Z,99740.89
2019-05-17T14:43:35.443Z,99735.72
2019-05-17T14:46:25.608Z,99730.22
2019-05-17T14:49:15.634Z,99721.91
2019-05-17T14:52:05.816Z,99722.58
2019-05-17T14:54:55.738Z,99725.65
2019-05-17T14:57:45.775Z,99730.39
2019-05-17T15:00:35.769Z,99727.34
2019-05-17T15:03:26.596Z,99718.71
2019-05-17T15:06:16.322Z,99718.20
2019-05-17T15:09:11.532Z,99718.06
2019-05-17T15:12:00.423Z,99720.19
2019-05-17T15:14:50.328Z,99718.87
2019-05-17T15:17:40.450Z,99718.55
2019-05-17T15:20:30.148Z,99713.05
2019-05-17T15:23:20.181Z,99707.55
2019-05-17T15:26:10.077Z,99712.17
2019-05-17T15:29:00.358Z,99708.83
2019-05-17T15:31:52.128Z,99711.58
2019-05-17T15:34:42.852Z,99699.70
2019-05-17T15:37:32.362Z,99696.56
2019-05-17T15:40:22.754Z,99697.47
2019-05-17T15:43:13.187Z,99704.61
2019-05-17T15:46:03.406Z,99697.67
2019-05-17T15:48:53.188Z,99696.75
2019-05-17T15:51:43.253Z,99698.03
2019-05-17T15:54:33.335Z,99696.03
2019-05-17T15:57:23.274Z,99692.44
2019-05-17T16:00:16.061Z,99687.36
2019-05-17T16:03:06.239Z,99689.91
2019-05-17T16:05:56.577Z,99686.01
2019-05-17T16:08:46.912Z,99704.22
2019-05-17T16:11:36.917Z,99686.01
2019-05-17T16:14:26.306Z,99681.16
2019-05-17T16:17:16.218Z,99672.08
2019-05-17T16:20:07.650Z,99680.39
2019-05-17T16:22:57.852Z,99676.07
2019-05-17T16:25:47.681Z,99674.47
2019-05-17T16:28:37.652Z,99671.39
2019-05-17T16:31:27.792Z,99673.58
2019-05-17T16:34:17.701Z,99675.64
2019-05-17T16:37:07.885Z,99668.48
2019-05-17T16:39:57.732Z,99670.64
2019-05-17T16:42:47.660Z,99673.25
2019-05-17T16:45:37.728Z,99663.66
2019-05-17T16:48:27.910Z,99664.17
2019-05-17T16:51:17.912Z,99666.26
2019-05-17T16:54:07.827Z,99662.28
2019-05-17T16:56:57.699Z,99657.80
2019-05-17T16:59:47.912Z,99654.67
2019-05-17T17:02:37.694Z,99660.28
2019-05-17T17:05:27.977Z,99650.99
2019-05-17T17:08:18.239Z,99653.25
2019-05-17T17:11:08.449Z,99654.12
2019-05-17T17:13:58.053Z,99652.55
2019-05-17T17:16:47.609Z,99649.30
2019-05-17T17:19:37.983Z,99653.19
2019-05-17T17:22:28.206Z,99649.19
2019-05-17T17:25:18.197Z,99647.31
2019-05-17T17:28:08.346Z,99649.03
2019-05-17T17:30:58.377Z,99650.29
2019-05-17T17:33:48.551Z,99648.05
2019-05-17T17:36:38.462Z,99650.29
2019-05-17T17:39:28.386Z,99648.16
2019-05-17T17:42:19.126Z,99644.91
2019-05-17T17:45:11.028Z,99644.09
2019-05-17T17:48:00.885Z,99645.47
2019-05-17T17:50:50.927Z,99641.94
2019-05-17T17:53:40.104Z,99641.99
2019-05-17T17:56:29.624Z,99633.26
2019-05-17T17:59:19.748Z,99634.37
2019-05-17T18:02:09.951Z,99638.86
2019-05-17T18:05:00.091Z,99635.91
2019-05-17T18:07:50.137Z,99647.75
2019-05-17T18:10:40.713Z,99652.50
2019-05-17T18:13:30.318Z,99644.36
2019-05-17T18:16:20.170Z,99646.88
2019-05-17T18:19:10.391Z,99649.45
2019-05-17T18:22:00.604Z,99649.05
2019-05-17T18:24:52.633Z,99646.73
2019-05-17T18:27:42.782Z,99649.89
2019-05-17T18:30:33.504Z,99652.46
2019-05-17T18:33:23.499Z,99649.31
2019-05-17T18:36:13.698Z,99655.77
2019-05-17T18:39:06.159Z,99650.73
2019-05-17T18:41:57.567Z,99650.64
2019-05-17T18:44:47.466Z,99655.52
2019-05-17T18:47:37.720Z,99657.55
2019-05-17T18:50:28.270Z,99652.31
2019-05-17T18:53:19.805Z,99655.22
2019-05-17T18:56:10.029Z,99656.20
2019-05-17T18:59:00.195Z,99653.98
2019-05-17T19:01:50.343Z,99665.42
2019-05-17T19:04:40.389Z,99665.10
2019-05-17T19:07:30.459Z,99667.20
2019-05-17T19:10:21.984Z,99670.41
2019-05-17T19:13:11.792Z,99671.42
2019-05-17T19:16:01.641Z,99673.01
2019-05-17T19:18:51.433Z,99679.98
2019-05-17T19:21:43.099Z,99678.55
2019-05-17T19:24:33.948Z,99683.63
2019-05-17T19:27:24.250Z,99688.13
2019-05-17T19:30:18.709Z,99689.05
2019-05-17T19:33:09.167Z,99692.72
2019-05-17T19:35:59.431Z,99689.84
2019-05-17T19:38:50.609Z,99691.86
2019-05-17T19:41:40.398Z,99697.16
2019-05-17T19:44:30.611Z,99697.25
2019-05-17T19:47:21.048Z,99697.86
2019-05-17T19:50:11.055Z,99694.95
2019-05-17T19:53:00.047Z,99693.92
2019-05-17T19:55:49.875Z,99695.33
2019-05-17T19:58:40.127Z,99692.38
2019-05-17T20:01:30.108Z,99691.05
2019-05-17T20:04:21.135Z,99690.55
2019-05-17T20:07:11.802Z,99694.41
2019-05-17T20:10:02.175Z,99691.45
2019-05-17T20:12:52.775Z,99692.31
2019-05-17T20:15:42.807Z,99693.16
2019-05-17T20:18:32.900Z,99690.41
2019-05-17T20:21:22.953Z,99691.82
2019-05-17T20:24:13.078Z,99695.91
2019-05-17T20:27:03.586Z,99699.21
2019-05-17T20:29:53.367Z,99697.57
2019-05-17T20:32:44.670Z,99696.21
2019-05-17T20:35:34.241Z,99700.58
2019-05-17T20:38:25.068Z,99699.50
2019-05-17T20:41:15.381Z,99699.78
2019-05-17T20:44:05.565Z,99697.34
2019-05-17T20:46:57.463Z,99692.44
2019-05-17T20:49:47.151Z,99694.90
2019-05-17T20:52:36.931Z,99689.16
2019-05-17T20:55:27.382Z,99692.16
2019-05-17T20:58:35.985Z,99685.38
2019-05-17T21:01:26.265Z,99682.65
2019-05-17T21:04:15.769Z,99682.89
2019-05-17T21:07:05.746Z,99674.44
2019-05-17T21:09:56.178Z,99679.31
2019-05-17T21:12:46.499Z,99684.47
2019-05-17T21:15:46.927Z,99680.66
2019-05-17T21:18:26.571Z,99681.99
2019-05-17T21:21:16.331Z,99670.31
2019-05-17T21:24:06.660Z,99678.98
2019-05-17T21:26:56.662Z,99685.76
2019-05-17T21:29:46.909Z,99684.12
2019-05-17T21:32:37.192Z,99687.91
2019-05-17T21:35:27.520Z,99686.79
2019-05-17T21:38:19.796Z,99687.58
2019-05-17T21:41:09.798Z,99691.91
2019-05-17T21:43:59.801Z,99693.53
2019-05-17T21:47:03.742Z,99691.85
2019-05-17T21:49:41.479Z,99682.61
2019-05-17T21:52:31.223Z,99683.69
2019-05-17T21:55:21.431Z,99695.34
2019-05-17T21:58:11.335Z,99690.70
2019-05-17T22:01:22.929Z,99693.64
2019-05-17T22:04:13.096Z,99690.07
2019-05-17T22:07:03.004Z,99688.13
2019-05-17T22:09:52.761Z,99694.36
2019-05-17T22:12:42.663Z,99691.36
2019-05-17T22:15:32.650Z,99687.28
2019-05-17T22:18:22.801Z,99686.70
2019-05-17T22:21:13.160Z,99687.24
2019-05-17T22:24:04.710Z,99690.77
2019-05-17T22:26:54.536Z,99686.38
2019-05-17T22:29:44.557Z,99691.78
2019-05-17T22:32:34.771Z,99685.25
2019-05-17T22:35:24.659Z,99683.62
2019-05-17T22:38:14.643Z,99682.77
2019-05-17T22:41:04.868Z,99683.81
2019-05-17T22:43:55.181Z,99690.58
2019-05-17T22:46:44.707Z,99683.76
2019-05-17T22:49:34.479Z,99675.58
2019-05-17T22:52:27.544Z,99672.58
2019-05-17T22:55:17.583Z,99673.06
2019-05-17T22:58:07.804Z,99672.22
2019-05-17T23:00:58.105Z,99673.53
2019-05-17T23:03:47.950Z,99676.22
2019-05-17T23:06:38.540Z,99682.44
2019-05-17T23:09:28.576Z,99679.68
2019-05-17T23:12:18.864Z,99676.38
2019-05-17T23:15:08.919Z,99672.55
2019-05-17T23:17:58.669Z,99675.80
2019-05-17T23:20:48.368Z,99673.33
2019-05-17T23:23:38.181Z,99668.15
2019-05-17T23:26:28.635Z,99666.50
2019-05-17T23:29:18.625Z,99665.09
2019-05-17T23:32:08.434Z,99674.28
2019-05-17T23:34:59.589Z,99667.22
2019-05-17T23:37:49.926Z,99664.45
2019-05-17T23:40:39.761Z,99663.06
2019-05-17T23:43:29.452Z,99663.80
2019-05-17T23:46:18.982Z,99665.69
2019-05-17T23:49:09.186Z,99667.34
2019-05-17T23:51:59.233Z,99661.92
2019-05-17T23:54:48.971Z,99665.98
2019-05-17T23:57:39.073Z,99660.57
